createdAt,value
2022-10-30T00:01:32.387Z,99.90
2022-10-30T00:04:00.367Z,99.90
2022-10-30T00:06:28.501Z,99.90
2022-10-30T00:08:56.846Z,99.90
2022-10-30T00:11:25.219Z,99.90
2022-10-30T00:13:55.181Z,99.90
2022-10-30T00:16:24.508Z,99.90
2022-10-30T00:18:52.720Z,99.90
2022-10-30T00:21:21.204Z,99.90
2022-10-30T00:23:53.768Z,99.90
2022-10-30T00:26:25.841Z,99.90
2022-10-30T00:28:56.674Z,99.90
2022-10-30T00:31:24.492Z,99.90
2022-10-30T00:33:54.013Z,99.90
2022-10-30T00:36:22.935Z,99.90
2022-10-30T00:38:50.956Z,99.90
2022-10-30T00:41:22.838Z,99.90
2022-10-30T00:43:51.442Z,99.90
2022-10-30T00:46:31.692Z,99.90
2022-10-30T00:49:17.051Z,99.90
2022-10-30T00:51:54.168Z,99.90
2022-10-30T00:54:25.103Z,99.90
2022-10-30T00:57:51.447Z,99.90
2022-10-30T01:00:23.354Z,99.90
2022-10-30T01:02:52.781Z,99.90
2022-10-30T01:05:25.722Z,99.90
2022-10-30T01:07:53.963Z,99.90
2022-10-30T01:10:23.560Z,99.90
2022-10-30T01:12:55.010Z,99.90
2022-10-30T01:15:34.438Z,99.90
2022-10-30T01:18:35.268Z,99.90
2022-10-30T01:21:19.560Z,99.90
2022-10-30T01:24:28.072Z,99.90
2022-10-30T01:28:13.336Z,99.90
2022-10-30T01:31:18.149Z,99.90
2022-10-30T01:34:25.351Z,99.90
2022-10-30T01:37:10.610Z,99.90
2022-10-30T01:39:41.558Z,99.90
2022-10-30T01:42:47.431Z,99.90
2022-10-30T01:46:15.410Z,99.90
2022-10-30T01:49:20.445Z,99.90
2022-10-30T01:51:56.395Z,99.90
2022-10-30T01:54:47.443Z,99.90
2022-10-30T01:57:58.868Z,99.90
2022-10-30T02:00:27.813Z,99.90
2022-10-30T02:02:56.528Z,99.90
2022-10-30T02:05:43.444Z,99.90
2022-10-30T02:08:10.868Z,99.90
2022-10-30T02:10:39.569Z,99.90
2022-10-30T02:13:06.996Z,99.90
2022-10-30T02:15:35.425Z,99.90
2022-10-30T02:18:02.871Z,99.90
2022-10-30T02:20:30.575Z,99.90
2022-10-30T02:22:59.435Z,99.90
2022-10-30T02:25:27.748Z,99.90
2022-10-30T02:27:54.906Z,99.90
2022-10-30T02:30:22.157Z,99.90
2022-10-30T02:32:49.723Z,99.90
2022-10-30T02:35:16.900Z,99.90
2022-10-30T02:37:44.305Z,99.90
2022-10-30T02:40:12.490Z,99.90
2022-10-30T02:42:39.721Z,99.90
2022-10-30T02:45:07.615Z,99.90
2022-10-30T02:47:34.895Z,99.90
2022-10-30T02:50:02.335Z,99.90
2022-10-30T02:52:29.732Z,99.90
2022-10-30T02:54:57.036Z,99.90
2022-10-30T02:57:24.770Z,99.90
2022-10-30T02:59:52.511Z,99.90
2022-10-30T03:02:20.031Z,99.90
2022-10-30T03:04:47.578Z,99.90
2022-10-30T03:07:15.064Z,99.90
2022-10-30T03:09:43.051Z,99.90
2022-10-30T03:12:10.562Z,99.90
2022-10-30T03:14:38.437Z,99.90
2022-10-30T03:17:06.041Z,99.90
2022-10-30T03:19:33.599Z,99.90
2022-10-30T03:22:00.899Z,99.90
2022-10-30T03:24:28.905Z,99.90
2022-10-30T03:26:56.476Z,99.90
2022-10-30T03:29:24.767Z,99.90
2022-10-30T03:31:52.646Z,99.90
2022-10-30T03:34:21.886Z,99.90
2022-10-30T03:36:50.095Z,99.90
2022-10-30T03:39:17.712Z,99.90
2022-10-30T03:41:45.163Z,99.90
2022-10-30T03:44:13.629Z,99.90
2022-10-30T03:46:41.914Z,99.90
2022-10-30T03:49:09.616Z,99.90
2022-10-30T03:51:40.439Z,99.90
2022-10-30T03:54:08.121Z,99.90
2022-10-30T03:56:36.682Z,99.90
2022-10-30T03:59:04.063Z,99.90
2022-10-30T04:01:31.644Z,99.90
2022-10-30T04:03:59.848Z,99.90
2022-10-30T04:06:27.479Z,99.90
2022-10-30T04:08:57.907Z,99.90
2022-10-30T04:11:25.717Z,99.90
2022-10-30T04:13:53.952Z,99.90
2022-10-30T04:16:21.611Z,99.90
2022-10-30T04:18:49.283Z,99.90
2022-10-30T04:21:17.135Z,99.90
2022-10-30T04:23:45.279Z,99.90
2022-10-30T04:26:13.377Z,99.90
2022-10-30T04:28:41.242Z,99.90
2022-10-30T04:31:09.075Z,99.90
2022-10-30T04:33:36.767Z,99.90
2022-10-30T04:36:04.491Z,99.90
2022-10-30T04:38:32.518Z,99.90
2022-10-30T04:41:00.042Z,99.90
2022-10-30T04:43:28.431Z,99.90
2022-10-30T04:45:56.518Z,99.90
2022-10-30T04:48:24.079Z,99.90
2022-10-30T04:50:51.836Z,99.90
2022-10-30T04:53:38.943Z,99.90
2022-10-30T04:56:26.419Z,99.90
2022-10-30T04:58:54.906Z,99.90
2022-10-30T05:01:22.992Z,99.90
2022-10-30T05:03:54.691Z,99.90
2022-10-30T05:06:26.520Z,99.90
2022-10-30T05:08:55.998Z,99.90
2022-10-30T05:11:24.221Z,99.90
2022-10-30T05:13:52.089Z,99.90
2022-10-30T05:16:19.551Z,99.90
2022-10-30T05:18:47.505Z,99.90
2022-10-30T05:21:15.255Z,99.90
2022-10-30T05:23:42.787Z,99.90
2022-10-30T05:26:10.400Z,99.90
2022-10-30T05:28:38.340Z,99.90
2022-10-30T05:31:06.028Z,99.90
2022-10-30T05:33:33.751Z,99.90
2022-10-30T05:36:01.458Z,99.90
2022-10-30T05:38:29.285Z,99.90
2022-10-30T05:40:56.948Z,99.90
2022-10-30T05:43:25.035Z,99.90
2022-10-30T05:45:52.883Z,99.90
2022-10-30T05:48:21.086Z,99.90
2022-10-30T05:50:48.726Z,99.90
2022-10-30T05:53:17.141Z,99.90
2022-10-30T05:55:44.705Z,99.90
2022-10-30T05:58:12.460Z,99.90
2022-10-30T06:00:41.335Z,99.90
2022-10-30T06:03:13.276Z,99.90
2022-10-30T06:05:42.474Z,99.90
2022-10-30T06:08:10.180Z,99.90
2022-10-30T06:10:38.118Z,99.90
2022-10-30T06:13:08.080Z,99.90
2022-10-30T06:15:36.150Z,99.90
2022-10-30T06:18:04.170Z,99.90
2022-10-30T06:20:32.793Z,99.90
2022-10-30T06:23:05.499Z,99.90
2022-10-30T06:25:41.356Z,99.90
2022-10-30T06:28:12.868Z,99.90
2022-10-30T06:30:40.811Z,99.90
2022-10-30T06:33:10.430Z,99.90
2022-10-30T06:35:38.633Z,99.90
2022-10-30T06:38:09.726Z,99.90
2022-10-30T06:40:37.549Z,99.90
2022-10-30T06:43:05.330Z,99.90
2022-10-30T06:45:33.043Z,99.90
2022-10-30T06:48:03.438Z,99.90
2022-10-30T06:51:10.324Z,99.90
2022-10-30T06:53:38.455Z,99.90
2022-10-30T06:56:06.877Z,99.90
2022-10-30T06:58:39.506Z,99.90
2022-10-30T07:01:08.013Z,99.90
2022-10-30T07:03:37.267Z,99.90
2022-10-30T07:06:06.575Z,99.90
2022-10-30T07:08:34.824Z,99.90
2022-10-30T07:11:02.413Z,99.90
2022-10-30T07:13:30.881Z,99.90
2022-10-30T07:16:01.004Z,99.90
2022-10-30T07:18:29.764Z,99.90
2022-10-30T07:20:57.832Z,99.90
2022-10-30T07:23:27.154Z,99.90
2022-10-30T07:25:59.505Z,99.90
2022-10-30T07:28:32.256Z,99.90
2022-10-30T07:31:00.164Z,99.90
2022-10-30T07:33:29.911Z,99.90
2022-10-30T07:36:01.448Z,99.90
2022-10-30T07:38:30.025Z,99.90
2022-10-30T07:40:59.326Z,99.90
2022-10-30T07:43:27.834Z,99.90
2022-10-30T07:45:59.942Z,99.90
2022-10-30T07:48:27.720Z,99.90
2022-10-30T07:50:55.378Z,99.90
2022-10-30T07:53:23.042Z,99.90
2022-10-30T07:55:50.994Z,99.90
2022-10-30T07:58:18.780Z,99.90
2022-10-30T08:00:48.003Z,99.90
2022-10-30T08:03:16.532Z,99.90
2022-10-30T08:05:44.361Z,99.90
2022-10-30T08:08:12.266Z,99.90
2022-10-30T08:10:40.649Z,99.90
2022-10-30T08:13:08.382Z,99.90
2022-10-30T08:15:36.003Z,99.90
2022-10-30T08:18:04.080Z,99.90
2022-10-30T08:20:32.215Z,99.90
2022-10-30T08:23:00.574Z,99.90
2022-10-30T08:25:33.727Z,99.90
2022-10-30T08:28:07.776Z,99.90
2022-10-30T08:30:39.452Z,99.90
2022-10-30T08:33:14.271Z,99.90
2022-10-30T08:35:55.508Z,99.90
2022-10-30T08:38:24.133Z,99.90
2022-10-30T08:40:52.525Z,99.90
2022-10-30T08:43:21.106Z,99.90
2022-10-30T08:45:49.023Z,99.90
2022-10-30T08:48:17.664Z,99.90
2022-10-30T08:50:46.125Z,99.90
2022-10-30T08:53:17.777Z,99.90
2022-10-30T08:55:45.438Z,99.90
2022-10-30T08:58:13.106Z,99.90
2022-10-30T09:00:40.861Z,99.90
2022-10-30T09:03:08.721Z,99.90
2022-10-30T09:05:38.216Z,99.90
2022-10-30T09:08:06.483Z,99.90
2022-10-30T09:10:34.379Z,99.90
2022-10-30T09:13:04.807Z,99.90
2022-10-30T09:15:32.083Z,99.90
2022-10-30T09:18:04.684Z,99.90
2022-10-30T09:20:32.603Z,99.90
2022-10-30T09:23:00.510Z,99.90
2022-10-30T09:25:28.074Z,99.90
2022-10-30T09:27:55.388Z,99.90
2022-10-30T09:30:26.384Z,99.90
2022-10-30T09:32:59.875Z,99.90
2022-10-30T09:35:27.375Z,99.90
2022-10-30T09:37:55.879Z,99.90
2022-10-30T09:41:02.326Z,99.90
2022-10-30T09:44:03.829Z,99.90
2022-10-30T09:47:06.775Z,99.90
2022-10-30T09:49:58.403Z,99.90
2022-10-30T09:52:28.083Z,99.90
2022-10-30T09:55:50.178Z,99.90
2022-10-30T09:58:47.584Z,99.90
2022-10-30T10:01:20.529Z,99.90
2022-10-30T10:04:27.453Z,99.90
2022-10-30T10:07:11.215Z,99.90
2022-10-30T10:09:42.429Z,99.90
2022-10-30T10:12:33.777Z,99.90
2022-10-30T10:15:09.989Z,99.90
2022-10-30T10:17:43.712Z,99.90
2022-10-30T10:20:32.720Z,99.90
2022-10-30T10:23:12.521Z,99.90
2022-10-30T10:25:50.632Z,99.90
2022-10-30T10:29:09.121Z,99.90
2022-10-30T10:32:14.842Z,99.90
2022-10-30T10:34:53.660Z,99.90
2022-10-30T10:37:48.344Z,99.90
2022-10-30T10:40:58.219Z,99.30
2022-10-30T10:44:00.021Z,99.90
2022-10-30T10:46:45.347Z,98.30
2022-10-30T10:49:46.763Z,98.00
2022-10-30T10:52:22.026Z,96.90
2022-10-30T10:55:04.976Z,96.40
2022-10-30T10:57:42.277Z,94.90
2022-10-30T11:00:17.589Z,94.30
2022-10-30T11:03:23.402Z,93.70
2022-10-30T11:06:15.333Z,93.10
2022-10-30T11:08:43.249Z,92.90
2022-10-30T11:11:10.512Z,93.20
2022-10-30T11:13:43.848Z,92.70
2022-10-30T11:16:34.800Z,92.10
2022-10-30T11:19:08.498Z,91.60
2022-10-30T11:21:45.227Z,91.60
2022-10-30T11:24:34.227Z,91.30
2022-10-30T11:27:23.301Z,91.00
2022-10-30T11:30:02.703Z,91.20
2022-10-30T11:32:33.574Z,91.00
2022-10-30T11:35:19.905Z,91.10
2022-10-30T11:37:54.138Z,90.60
2022-10-30T11:40:24.018Z,91.00
2022-10-30T11:43:10.563Z,90.40
2022-10-30T11:45:44.224Z,89.20
2022-10-30T11:48:34.436Z,90.40
2022-10-30T11:51:04.035Z,89.60
2022-10-30T11:53:38.845Z,88.40
2022-10-30T11:56:20.411Z,87.30
2022-10-30T11:59:01.243Z,85.30
2022-10-30T12:01:36.332Z,85.20
2022-10-30T12:04:25.906Z,84.00
2022-10-30T12:07:31.682Z,83.30
2022-10-30T12:09:59.987Z,82.80
2022-10-30T12:12:53.699Z,84.40
2022-10-30T12:15:27.024Z,82.70
2022-10-30T12:18:02.742Z,82.60
2022-10-30T12:20:30.765Z,83.40
2022-10-30T12:22:59.055Z,82.20
2022-10-30T12:25:32.393Z,82.00
2022-10-30T12:28:15.455Z,81.30
2022-10-30T12:31:09.023Z,81.00
2022-10-30T12:33:50.400Z,82.80
2022-10-30T12:36:22.675Z,82.10
2022-10-30T12:39:22.277Z,82.50
2022-10-30T12:41:49.475Z,81.40
2022-10-30T12:44:33.484Z,82.10
2022-10-30T12:47:09.670Z,80.00
2022-10-30T12:50:02.176Z,80.80
2022-10-30T12:52:42.160Z,79.70
2022-10-30T12:55:40.945Z,80.10
2022-10-30T12:58:41.668Z,80.30
2022-10-30T13:01:27.255Z,81.10
2022-10-30T13:04:10.809Z,81.80
2022-10-30T13:06:54.337Z,81.90
2022-10-30T13:09:39.067Z,81.60
2022-10-30T13:12:18.249Z,82.20
2022-10-30T13:15:06.279Z,82.80
2022-10-30T13:17:33.832Z,82.70
2022-10-30T13:20:01.105Z,84.00
2022-10-30T13:23:02.283Z,84.50
2022-10-30T13:26:18.459Z,84.70
2022-10-30T13:29:06.221Z,85.40
2022-10-30T13:32:02.733Z,85.90
2022-10-30T13:35:10.318Z,86.40
2022-10-30T13:38:05.318Z,87.50
2022-10-30T13:40:39.449Z,87.50
2022-10-30T13:43:27.487Z,88.40
2022-10-30T13:46:03.561Z,87.40
2022-10-30T13:48:59.519Z,87.40
2022-10-30T13:51:29.630Z,86.30
2022-10-30T13:54:18.317Z,86.30
2022-10-30T13:56:50.697Z,85.20
2022-10-30T13:59:36.176Z,85.30
2022-10-30T14:02:38.082Z,84.00
2022-10-30T14:05:35.938Z,83.70
2022-10-30T14:08:16.187Z,84.10
2022-10-30T14:10:59.468Z,83.90
2022-10-30T14:13:45.540Z,84.00
2022-10-30T14:16:43.102Z,83.70
2022-10-30T14:19:15.133Z,82.60
2022-10-30T14:21:57.766Z,82.40
2022-10-30T14:24:34.106Z,80.90
2022-10-30T14:27:05.148Z,80.80
2022-10-30T14:29:36.740Z,81.00
2022-10-30T14:32:24.668Z,80.50
2022-10-30T14:34:52.552Z,81.10
2022-10-30T14:37:40.328Z,81.90
2022-10-30T14:41:05.188Z,82.10
2022-10-30T14:44:04.151Z,83.10
2022-10-30T14:47:01.588Z,83.90
2022-10-30T14:49:53.836Z,85.40
2022-10-30T14:53:24.891Z,85.40
2022-10-30T14:56:20.289Z,86.40
2022-10-30T14:59:13.661Z,87.10
2022-10-30T15:02:22.028Z,87.80
2022-10-30T15:05:13.199Z,88.80
2022-10-30T15:07:59.273Z,88.60
2022-10-30T15:10:37.573Z,89.50
2022-10-30T15:13:23.278Z,89.70
2022-10-30T15:16:06.706Z,90.20
2022-10-30T15:18:36.385Z,90.70
2022-10-30T15:21:07.964Z,90.50
2022-10-30T15:23:37.700Z,90.60
2022-10-30T15:26:21.379Z,90.70
2022-10-30T15:28:53.855Z,90.90
2022-10-30T15:31:27.156Z,91.10
2022-10-30T15:33:56.963Z,91.20
2022-10-30T15:36:42.549Z,91.40
2022-10-30T15:39:17.079Z,91.50
2022-10-30T15:41:58.312Z,91.60
2022-10-30T15:44:33.287Z,91.90
2022-10-30T15:47:03.796Z,92.00
2022-10-30T15:49:37.411Z,92.20
2022-10-30T15:52:28.215Z,92.60
2022-10-30T15:55:03.020Z,92.90
2022-10-30T15:58:01.581Z,93.10
2022-10-30T16:00:39.852Z,93.20
2022-10-30T16:03:18.246Z,93.40
2022-10-30T16:05:45.823Z,94.10
2022-10-30T16:08:20.724Z,94.10
2022-10-30T16:10:50.279Z,94.70
2022-10-30T16:13:25.502Z,94.90
2022-10-30T16:15:53.149Z,95.20
2022-10-30T16:18:31.804Z,95.50
2022-10-30T16:21:08.529Z,95.90
2022-10-30T16:23:47.060Z,96.30
2022-10-30T16:26:44.698Z,96.50
2022-10-30T16:29:14.628Z,97.10
2022-10-30T16:31:49.854Z,97.00
2022-10-30T16:34:35.368Z,97.30
2022-10-30T16:37:05.117Z,97.80
2022-10-30T16:39:35.390Z,98.10
2022-10-30T16:42:03.711Z,98.40
2022-10-30T16:44:36.127Z,98.70
2022-10-30T16:47:44.926Z,99.30
2022-10-30T16:50:19.836Z,99.70
2022-10-30T16:54:05.419Z,99.70
2022-10-30T17:00:07.696Z,99.90
2022-10-30T17:02:49.011Z,99.90
2022-10-30T17:05:31.499Z,99.90
2022-10-30T17:08:10.800Z,99.90
2022-10-30T17:11:01.256Z,99.90
2022-10-30T17:14:00.866Z,99.90
2022-10-30T17:17:03.500Z,99.90
2022-10-30T17:20:07.594Z,99.90
2022-10-30T17:22:35.576Z,99.90
2022-10-30T17:25:25.082Z,99.90
2022-10-30T17:27:53.494Z,99.90
2022-10-30T17:30:34.835Z,99.90
2022-10-30T17:33:35.515Z,99.90
2022-10-30T17:36:06.569Z,99.90
2022-10-30T17:38:34.276Z,99.90
2022-10-30T17:41:02.859Z,99.90
2022-10-30T17:43:49.504Z,99.90
2022-10-30T17:46:20.241Z,99.90
2022-10-30T17:48:50.170Z,99.90
2022-10-30T17:51:31.953Z,99.90
2022-10-30T17:54:56.678Z,99.90
2022-10-30T17:57:25.681Z,99.90
2022-10-30T17:59:53.611Z,99.90
2022-10-30T18:02:24.316Z,99.90
2022-10-30T18:04:55.294Z,99.90
2022-10-30T18:07:23.510Z,99.90
2022-10-30T18:09:52.281Z,99.90
2022-10-30T18:12:20.751Z,99.90
2022-10-30T18:17:31.688Z,99.90
2022-10-30T18:24:30.957Z,99.90
2022-10-30T18:26:58.961Z,99.90
2022-10-30T18:29:30.427Z,99.90
2022-10-30T18:31:58.429Z,99.90
2022-10-30T18:34:26.167Z,99.90
2022-10-30T18:36:53.838Z,99.90
2022-10-30T18:39:22.062Z,99.90
2022-10-30T18:41:50.185Z,99.90
2022-10-30T18:44:20.461Z,99.90
2022-10-30T18:46:48.550Z,99.90
2022-10-30T18:53:45.429Z,99.90
2022-10-30T18:57:11.310Z,99.90
2022-10-30T18:59:56.613Z,99.90
2022-10-30T19:02:38.129Z,99.90
2022-10-30T19:06:03.935Z,99.90
2022-10-30T19:08:35.750Z,99.90
2022-10-30T19:11:02.977Z,99.90
2022-10-30T19:13:30.942Z,99.90
2022-10-30T19:16:01.523Z,99.90
2022-10-30T19:18:31.567Z,99.90
2022-10-30T19:21:10.199Z,99.90
2022-10-30T19:23:40.932Z,99.90
2022-10-30T19:26:38.647Z,99.90
2022-10-30T19:29:06.666Z,99.90
2022-10-30T19:31:35.279Z,99.90
2022-10-30T19:34:05.600Z,99.90
2022-10-30T19:36:38.135Z,99.90
2022-10-30T19:39:17.909Z,99.90
2022-10-30T19:41:46.408Z,99.90
2022-10-30T19:44:14.733Z,99.90
2022-10-30T19:46:42.287Z,99.90
2022-10-30T19:49:21.142Z,99.90
2022-10-30T19:51:49.322Z,99.90
2022-10-30T19:54:16.839Z,99.90
2022-10-30T19:56:44.939Z,99.90
2022-10-30T19:59:15.688Z,99.90
2022-10-30T20:01:45.299Z,99.90
2022-10-30T20:04:17.850Z,99.90
2022-10-30T20:06:45.171Z,99.90
2022-10-30T20:09:13.899Z,99.90
2022-10-30T20:11:43.973Z,99.90
2022-10-30T20:14:11.463Z,99.90
2022-10-30T20:16:39.125Z,99.90
2022-10-30T20:19:32.798Z,99.90
2022-10-30T20:21:59.977Z,99.90
2022-10-30T20:24:27.335Z,99.90
2022-10-30T20:26:57.891Z,99.90
2022-10-30T20:29:25.782Z,99.90
2022-10-30T20:31:52.951Z,99.90
2022-10-30T20:34:20.286Z,99.90
2022-10-30T20:36:50.834Z,99.90
2022-10-30T20:39:18.133Z,99.90
2022-10-30T20:41:45.420Z,99.90
2022-10-30T20:44:13.574Z,99.90
2022-10-30T20:46:40.866Z,99.90
2022-10-30T20:49:17.146Z,99.90
2022-10-30T20:51:45.793Z,99.90
2022-10-30T20:54:13.010Z,99.90
2022-10-30T20:56:40.512Z,99.90
2022-10-30T20:59:07.881Z,99.90
2022-10-30T21:01:35.405Z,99.90
2022-10-30T21:04:02.676Z,99.90
2022-10-30T21:06:29.902Z,99.90
2022-10-30T21:08:57.243Z,99.90
2022-10-30T21:11:25.656Z,99.90
2022-10-30T21:13:56.847Z,99.90
2022-10-30T21:16:24.874Z,99.90
2022-10-30T21:18:55.960Z,99.90
2022-10-30T21:21:26.232Z,99.90
2022-10-30T21:23:57.146Z,99.90
2022-10-30T21:26:25.123Z,99.90
2022-10-30T21:28:54.567Z,99.90
2022-10-30T21:31:21.999Z,99.90
2022-10-30T21:33:49.173Z,99.90
2022-10-30T21:36:20.006Z,99.90
2022-10-30T21:38:47.627Z,99.90
2022-10-30T21:41:19.814Z,99.90
2022-10-30T21:43:56.572Z,99.90
2022-10-30T21:46:27.800Z,99.90
2022-10-30T21:48:56.015Z,99.90
2022-10-30T21:51:26.601Z,99.90
2022-10-30T21:53:57.080Z,99.90
2022-10-30T21:56:28.336Z,99.90
2022-10-30T21:58:59.716Z,99.90
2022-10-30T22:01:32.974Z,99.90
2022-10-30T22:04:02.954Z,99.90
2022-10-30T22:06:31.445Z,99.90
2022-10-30T22:09:03.483Z,99.90
2022-10-30T22:11:31.259Z,99.90
2022-10-30T22:14:02.691Z,99.90
2022-10-30T22:16:33.955Z,99.90
2022-10-30T22:19:02.578Z,99.90
2022-10-30T22:21:30.885Z,99.90
2022-10-30T22:28:09.341Z,99.90
2022-10-30T22:30:37.661Z,99.90
2022-10-30T22:33:05.625Z,99.90
2022-10-30T22:35:33.607Z,99.90
2022-10-30T22:38:02.293Z,99.90
2022-10-30T22:40:30.915Z,99.90
2022-10-30T22:42:58.619Z,99.90
2022-10-30T22:45:31.949Z,99.90
2022-10-30T22:48:02.134Z,99.90
2022-10-30T22:50:34.342Z,99.90
2022-10-30T22:53:11.474Z,99.90
2022-10-30T22:56:54.375Z,99.90
2022-10-30T22:59:23.979Z,99.90
2022-10-30T23:01:53.651Z,99.90
2022-10-30T23:04:22.034Z,99.90
2022-10-30T23:06:49.435Z,99.90
2022-10-30T23:09:22.551Z,99.90
2022-10-30T23:11:50.622Z,99.90
2022-10-30T23:14:19.117Z,99.90
2022-10-30T23:16:46.581Z,99.90
2022-10-30T23:19:14.067Z,99.90
2022-10-30T23:21:41.197Z,99.90
2022-10-30T23:24:09.989Z,99.90
2022-10-30T23:26:37.502Z,99.90
2022-10-30T23:33:18.048Z,99.90
2022-10-30T23:35:45.271Z,99.90
2022-10-30T23:38:12.681Z,99.90
2022-10-30T23:40:40.141Z,99.90
2022-10-30T23:43:07.694Z,99.90
2022-10-30T23:45:35.923Z,99.90
2022-10-30T23:48:03.554Z,99.90
2022-10-30T23:50:35.218Z,99.90
2022-10-30T23:53:03.264Z,99.90
2022-10-30T23:55:31.298Z,99.90
2022-10-30T23:58:01.399Z,99.90
